Overview Statistics Trail Chart Weather Telemetry Raw packets
 

This is the latest recevied weather packets stored in our database for station/object SR4DIG-13. If no packets are shown the sender has not sent any weather packets the latest 10 day(s).

<< 16 17 18 19 20 21 22 >>
Time Temp. Humidity Pressure Rain* Wind** Luminosity Snow
1788528029 18.89° C 82% 1007.1 hPa 0 mm - - -
1788527753 17.78° C 82% 1007.2 hPa 0 mm - - -
1788527427 17.22° C 81% 1007.3 hPa 0 mm - - -
1788527126 17.22° C 80% 1007.4 hPa 0 mm - - -
1788526825 17.22° C 79% 1007.5 hPa 0 mm - - -
1788526524 17.22° C 78% 1007.6 hPa 0 mm - - -
1788526223 17.78° C 76% 1007.5 hPa 0 mm - - -
1788525922 18.89° C 72% 1007.5 hPa 0 mm - - -
1788525621 20.56° C 68% 1007.5 hPa 0 mm - - -
1788525321 22.22° C 65% 1007.3 hPa 0 mm - - -
1788524680 21.67° C 69% 1007.3 hPa 0 mm - - -
1788524379 21.11° C 71% 1007.4 hPa 0 mm - - -
1788524078 20.56° C 74% 1007.5 hPa 0 mm - - -
1788523476 18.33° C 75% 1007.8 hPa 0 mm - - -
1788523175 18.33° C 75% 1007.7 hPa 0 mm - - -
1788522874 18.33° C 75% 1007.9 hPa 0 mm - - -
1788522573 18.33° C 74% 1008.1 hPa 0 mm - - -
1788522272 18.89° C 73% 1008.1 hPa 0 mm - - -
1788521971 19.44° C 72% 1008.2 hPa 0 mm - - -
1788521670 19.44° C 73% 1008.2 hPa 0 mm - - -
1788521370 19.44° C 73% 1008.1 hPa 0 mm - - -
1788521069 19.44° C 73% 1008.1 hPa 0 mm - - -
1788520772 19.44° C 70% 1008.1 hPa 0 mm - - -
1788520467 20.56° C 68% 1008.2 hPa 0 mm - - -
1788520166 20.56° C 68% 1008.3 hPa 0 mm - - -

* Rain latest hour (hover to see other rain measurements)
** Current wind speed in m/s (hover to see current wind gust speed)